createdAt,value
2023-03-04T13:12:55.970Z,100466.41
2023-03-04T13:15:47.132Z,100467.03
2023-03-04T13:18:47.525Z,100472.91
2023-03-04T13:22:05.052Z,100476.34
2023-03-04T13:25:00.839Z,100466.94
2023-03-04T13:28:15.784Z,100478.59
2023-03-04T13:31:19.204Z,100475.53
2023-03-04T13:34:54.970Z,100459.91
2023-03-04T13:38:01.664Z,100465.59
2023-03-04T13:41:17.479Z,100464.66
2023-03-04T13:44:45.696Z,100444.31
2023-03-04T13:47:46.629Z,100457.31
2023-03-04T13:50:42.740Z,100439.69
2023-03-04T13:53:39.822Z,100454.97
2023-03-04T13:56:42.853Z,100445.88
2023-03-04T13:59:45.650Z,100448.34
2023-03-04T14:02:36.686Z,100445.78
2023-03-04T14:05:27.812Z,100441.59
2023-03-04T14:08:21.543Z,100441.22
2023-03-04T14:11:35.302Z,100425.63
2023-03-04T14:14:50.913Z,100436.03
2023-03-04T14:17:41.097Z,100428.22
2023-03-04T14:20:37.238Z,100413.31
2023-03-04T14:23:36.717Z,100415.31
2023-03-04T14:26:25.985Z,100416.34
2023-03-04T14:29:32.093Z,100431.44
2023-03-04T14:32:24.421Z,100407.13
2023-03-04T14:35:32.799Z,100414.03
2023-03-04T14:38:30.164Z,100429.16
2023-03-04T14:41:25.911Z,100408.72
2023-03-04T14:44:26.205Z,100413.94
2023-03-04T14:47:26.755Z,100412.91
2023-03-04T14:50:25.137Z,100392.63
2023-03-04T14:53:22.808Z,100397.44
2023-03-04T14:56:11.840Z,100381.66
2023-03-04T14:59:00.318Z,100408.03
2023-03-04T15:01:52.304Z,100378.75
2023-03-04T15:04:42.510Z,100394.31
2023-03-04T15:07:40.203Z,100392.75
2023-03-04T15:10:38.521Z,100404.47
2023-03-04T15:13:52.873Z,100384.03
2023-03-04T15:16:57.532Z,100392.47
2023-03-04T15:20:03.904Z,100383.91
2023-03-04T15:22:55.975Z,100388.50
2023-03-04T15:25:48.963Z,100385.59
2023-03-04T15:28:39.673Z,100379.25
2023-03-04T15:31:32.163Z,100376.28
2023-03-04T15:34:28.547Z,100379.72
2023-03-04T15:37:29.326Z,100385.13
2023-03-04T15:40:34.086Z,100381.06
2023-03-04T15:43:28.698Z,100384.91
2023-03-04T15:46:18.128Z,100371.72
2023-03-04T15:49:08.783Z,100370.50
2023-03-04T15:51:57.014Z,100371.00
2023-03-04T15:54:49.813Z,100378.81
2023-03-04T15:57:37.986Z,100387.00
2023-03-04T16:00:26.152Z,100380.06
2023-03-04T16:03:20.076Z,100375.59
2023-03-04T16:06:20.186Z,100369.00
2023-03-04T16:09:20.107Z,100369.75
2023-03-04T16:13:26.099Z,100358.13
2023-03-04T16:16:15.046Z,100374.50
2023-03-04T16:19:04.669Z,100359.16
2023-03-04T16:21:58.872Z,100378.44
2023-03-04T16:24:48.503Z,100353.44
2023-03-04T16:27:40.567Z,100365.22
2023-03-04T16:30:33.322Z,100355.84
2023-03-04T16:33:21.656Z,100363.19
2023-03-04T16:36:22.551Z,100355.13
2023-03-04T16:39:26.538Z,100353.63
2023-03-04T16:42:19.196Z,100356.88
2023-03-04T16:45:26.291Z,100349.41
2023-03-04T16:48:21.287Z,100365.50
2023-03-04T16:51:20.621Z,100362.06
2023-03-04T16:54:19.646Z,100365.91
2023-03-04T16:57:11.970Z,100349.53
2023-03-04T17:00:11.281Z,100348.66
2023-03-04T17:03:17.964Z,100368.22
2023-03-04T17:06:07.059Z,100366.34
2023-03-04T17:09:00.285Z,100362.06
2023-03-04T17:11:53.384Z,100359.44
2023-03-04T17:14:47.971Z,100352.81
2023-03-04T17:17:37.549Z,100358.66
2023-03-04T17:20:25.763Z,100370.09
2023-03-04T17:23:13.994Z,100380.28
2023-03-04T17:26:05.926Z,100360.31
2023-03-04T17:29:27.654Z,100376.63
2023-03-04T17:32:19.446Z,100379.06
2023-03-04T17:35:11.661Z,100375.50
2023-03-04T17:37:59.698Z,100372.81
2023-03-04T17:40:48.110Z,100369.56
2023-03-04T17:43:44.810Z,100384.75
2023-03-04T17:46:42.146Z,100385.13
2023-03-04T17:49:44.949Z,100394.53
2023-03-04T17:52:35.925Z,100384.34
2023-03-04T17:55:25.724Z,100375.81
2023-03-04T17:58:22.445Z,100381.31
2023-03-04T18:01:31.231Z,100369.94
2023-03-04T18:04:23.054Z,100363.00
2023-03-04T18:07:39.036Z,100377.59
2023-03-04T18:10:34.606Z,100363.16
2023-03-04T18:13:30.231Z,100374.50
2023-03-04T18:16:33.037Z,100360.06
2023-03-04T18:19:28.074Z,100369.88
2023-03-04T18:22:23.048Z,100364.38
2023-03-04T18:25:25.528Z,100370.59
2023-03-04T18:28:21.967Z,100367.56
2023-03-04T18:31:22.159Z,100355.00
2023-03-04T18:34:14.322Z,100365.97
2023-03-04T18:37:13.597Z,100355.84
2023-03-04T19:09:55.698Z,100344.50
2023-03-04T19:13:04.682Z,100366.44
2023-03-04T19:16:10.612Z,100338.63
2023-03-04T19:19:03.582Z,100356.22
2023-03-04T19:21:54.341Z,100354.28
2023-03-04T19:28:03.544Z,100347.66
2023-03-04T19:31:51.508Z,100365.66
2023-03-04T19:34:59.271Z,100349.25
2023-03-04T19:38:06.067Z,100347.63
2023-03-04T19:41:05.986Z,100357.81
2023-03-04T19:43:57.729Z,100343.78
2023-03-04T19:49:43.472Z,100364.56
2023-03-04T19:52:44.807Z,100349.63
2023-03-04T19:55:42.965Z,100344.94
2023-03-04T20:01:42.211Z,100346.88
2023-03-04T20:11:44.227Z,100353.53
2023-03-04T20:18:09.206Z,100335.84
2023-03-04T20:21:05.269Z,100342.47
2023-03-04T20:24:18.294Z,100351.75
2023-03-04T20:27:24.479Z,100343.13
2023-03-04T20:30:32.685Z,100336.78
2023-03-04T20:33:40.099Z,100358.31
2023-03-04T20:36:37.757Z,100356.75
2023-03-04T20:39:40.921Z,100356.72
2023-03-04T20:42:31.654Z,100359.97
2023-03-04T20:45:31.122Z,100348.69
2023-03-04T20:48:28.488Z,100362.81
2023-03-04T20:55:03.188Z,100349.19
2023-03-04T20:57:54.955Z,100361.34
2023-03-04T21:00:57.434Z,100346.94
2023-03-04T21:03:58.717Z,100353.16
2023-03-04T21:10:54.176Z,100365.72
2023-03-04T21:14:00.856Z,100360.19
2023-03-04T21:18:46.750Z,100363.28
2023-03-04T21:21:53.872Z,100358.97
2023-03-04T21:34:03.140Z,100330.19
2023-03-04T21:37:10.702Z,100340.31
2023-03-04T21:52:52.914Z,100342.69
2023-03-04T21:56:25.696Z,100323.91
2023-03-04T22:00:20.391Z,100315.69
2023-03-04T22:04:12.355Z,100318.44
2023-03-04T22:08:19.523Z,100308.31
2023-03-04T22:11:26.528Z,100313.75
2023-03-04T22:14:36.998Z,100301.66
2023-03-04T22:17:32.634Z,100310.25
2023-03-04T22:20:56.983Z,100314.09
2023-03-04T22:30:29.690Z,100306.69
2023-03-04T22:45:14.743Z,100316.84
2023-03-04T22:51:58.796Z,100323.13
2023-03-04T22:58:34.908Z,100297.31
2023-03-04T23:01:31.709Z,100300.88
2023-03-04T23:04:22.073Z,100304.78
2023-03-04T23:11:10.177Z,100307.16
2023-03-04T23:14:13.982Z,100296.59
2023-03-04T23:17:10.125Z,100311.47
2023-03-04T23:20:35.321Z,100311.47
2023-03-04T23:27:08.225Z,100311.88
2023-03-04T23:33:50.661Z,100302.50
2023-03-04T23:37:21.081Z,100307.59
2023-03-04T23:40:29.128Z,100303.69
2023-03-04T23:43:38.719Z,100308.31
2023-03-04T23:49:59.998Z,100298.19
